メインページ
METAR-TAF:

METAR-TAF

空港 :

Penticton, ブリティッシュコロンビア州, カナダ

緯度: 49-28N, 経度: 119-36W, 海抜: 344m

現時点の気象観測

当レポートは1時間1分前の02:00(UTC)に作成
北/北東の風 14kt、最大20ktの突風を伴う
気温 19°C
湿度 49%
気圧 1011 hPa
視程: 24.1km
高度8500ftの雲は散在している, 積乱雲.
高度12000ftの千切れ雲あり

METAR: CYYF 240200Z 02014G20KT 15SM SCT085CB BKN120 19/08 A2985 RMK CB3AC3 SH N SLP110 DENSITY ALT 2000FT

時間: 20:01 (03:01 UTC)

予報

当レポートは2時間23分前の00:38(UTC)に作成
予報は24日の 01時(UTC)から 24日の 13時(UTC)まで有効
の風 8kt
視程: 10km
高度10000ftの千切れ雲あり
高度20000ftの曇り
24日の 01時(UTC)から 24日の 05時(UTC)まで一時的に
視程: 10km
高度6000ftの千切れ雲あり, 積乱雲.
高度10000ftの曇り
弱いにわか雨, 近辺で激しい雷雨
24日の 0500時(UTC)から
北西の風 5kt
視程: 10km
高度6000ftの雲は散在している
高度10000ftの千切れ雲あり

TAF: CYYF 240038Z 2401/2413 36008KT P6SM BKN100 OVC200 TEMPO 2401/2405 P6SM -SHRA VCTS BKN060CB OVC100 FM240500 32005KT P6SM SCT060 BKN100 RMK NXT FCST BY 240700Z

4,000以上の空港の気象観測と天気予報(METAR報とTAF報)

利用可能な観測所は地図上に黄色い丸と赤い丸で示す。

丸の上にカーソルを重ねると観測所名を参照できる。

次にクリックすると気象観測と天気予報を参照できる。

マップの切り替え:黒色「×」印の緑ボタンをクリックして拡大、「-」印の緑ボタンをクリックして縮小、緑色の三角印をクリックして隣りの地図に切り替え


METAR-TAF: